PWSweather.com
Personal Weather Stations
Station Observations
TENMILE2
Watts Bar Lake, Ten Mile, TN 37880

Watts Bar LakeTen Mile, TN 37880

Lat: 35.686, Lon: -84.7068

Elevation: 767

Station Type: Davis Vue

http://www.wattsbarweather.org

Latest ConditionsUpdated 11:21:12 PM EDT Thursday, Apr 18, 2019
Currently Today's Max Today's Min Today's Average
Temperature 72.6°F22.6°C 79.1°F26.2°C 55.0°F12.8°C 69.1°F20.6°C
Dew Point 57.2°F14.0°C 61.5°F16.4°C 50.9°F10.5°C 55.7°F13.2°C
Winds 4.2 mph S6.8 kmh S 16.4 mph -26.4 kmh - - 3.3 mph 5.3 kmh
Wind Gusts 13.8 mph22.2 kmh 31.3 mph50.4 kmh - -
Humidity 58% 91% 44% 64%
Pressure 29.68 in1005.1 mb 30.00 in1015.9 mb 29.68 in1005.1 mb -
Hour Temp Dew Point Humidity Winds Wind Gusts Pressure Precip Precip Rate Daily Precip Total
11:21 PM 72.6°F22.6°C 57.2°F14.0°C 58% 4.2 mph S6.8 kmh S 13.8 mph22.2 kmh 29.68 in1005.1 mb 0.00 in0.0 mm 0.00 in0.0 mm 0.00 in0.0 mm
11:16 PM 72.6°F22.6°C 56.7°F13.7°C 57% 3.3 mph W5.3 kmh W 9.0 mph14.5 kmh 29.68 in1005.1 mb 0.00 in0.0 mm 0.00 in0.0 mm 0.00 in0.0 mm
11:11 PM 72.6°F22.6°C 57.2°F14.0°C 58% 2.8 mph SW4.5 kmh SW 10.0 mph16.1 kmh 29.68 in1005.1 mb 0.00 in0.0 mm 0.00 in0.0 mm 0.00 in0.0 mm
11:06 PM 72.5°F22.5°C 57.1°F13.9°C 58% 2.8 mph SW4.5 kmh SW 11.3 mph18.2 kmh 29.69 in1005.4 mb 0.00 in0.0 mm 0.00 in0.0 mm 0.00 in0.0 mm
11:01 PM 72.3°F22.4°C 56.9°F13.8°C 58% 3.5 mph SW5.6 kmh SW 11.3 mph18.2 kmh 29.69 in1005.4 mb 0.00 in0.0 mm 0.00 in0.0 mm 0.00 in0.0 mm
10:56 PM 71.9°F22.2°C 57.0°F13.9°C 59% 4.3 mph ESE6.9 kmh ESE 11.3 mph18.2 kmh 29.70 in1005.8 mb 0.00 in0.0 mm 0.00 in0.0 mm 0.00 in0.0 mm
10:51 PM 71.5°F21.9°C 57.1°F13.9°C 60% 2.8 mph SW4.5 kmh SW 7.5 mph12.1 kmh 29.70 in1005.8 mb 0.00 in0.0 mm 0.00 in0.0 mm 0.00 in0.0 mm
10:46 PM 71.0°F21.7°C 57.1°F13.9°C 61% 2.5 mph S4.0 kmh S 5.0 mph8.0 kmh 29.70 in1005.8 mb 0.00 in0.0 mm 0.00 in0.0 mm 0.00 in0.0 mm
10:41 PM 70.6°F21.4°C 57.1°F13.9°C 62% 2.5 mph S4.0 kmh S 5.0 mph8.0 kmh 29.70 in1005.8 mb 0.00 in0.0 mm 0.00 in0.0 mm 0.00 in0.0 mm
10:36 PM 69.9°F21.1°C 56.9°F13.8°C 63% 2.1 mph ENE3.4 kmh ENE 5.0 mph8.0 kmh 29.70 in1005.8 mb 0.00 in0.0 mm 0.00 in0.0 mm 0.00 in0.0 mm
10:31 PM 68.9°F20.5°C 56.8°F13.8°C 65% 2.2 mph SW3.5 kmh SW 5.0 mph8.0 kmh 29.70 in1005.8 mb 0.00 in0.0 mm 0.00 in0.0 mm 0.00 in0.0 mm
10:26 PM 67.9°F19.9°C 56.7°F13.7°C 67% 1.4 mph NNW2.3 kmh NNW 3.8 mph6.1 kmh 29.70 in1005.8 mb 0.00 in0.0 mm 0.00 in0.0 mm 0.00 in0.0 mm
10:21 PM 67.3°F19.6°C 56.9°F13.8°C 69% 1.3 mph ENE2.1 kmh ENE 2.5 mph4.0 kmh 29.72 in1006.4 mb 0.00 in0.0 mm 0.00 in0.0 mm 0.00 in0.0 mm
10:15 PM 67.1°F19.5°C 57.9°F14.4°C 72% Calm Calm 1.3 mph2.1 kmh 29.73 in1006.8 mb 0.00 in0.0 mm 0.00 in0.0 mm 0.00 in0.0 mm
10:10 PM 67.0°F19.4°C 57.1°F13.9°C 70% Calm Calm -- 29.73 in1006.8 mb 0.00 in0.0 mm 0.00 in0.0 mm 0.00 in0.0 mm
10:05 PM 67.1°F19.5°C 57.2°F14.0°C 70% Calm Calm -- 29.73 in1006.8 mb 0.00 in0.0 mm 0.00 in0.0 mm 0.00 in0.0 mm
10:00 PM 67.3°F19.6°C 57.3°F14.1°C 70% Calm Calm 1.0 mph1.6 kmh 29.73 in1006.8 mb 0.00 in0.0 mm 0.00 in0.0 mm 0.00 in0.0 mm
09:55 PM 67.5°F19.7°C 57.1°F13.9°C 69% Calm Calm 1.0 mph1.6 kmh 29.73 in1006.8 mb 0.00 in0.0 mm 0.00 in0.0 mm 0.00 in0.0 mm
09:50 PM 67.7°F19.8°C 57.7°F14.3°C 70% Calm Calm 1.3 mph2.1 kmh 29.73 in1006.8 mb 0.00 in0.0 mm 0.00 in0.0 mm 0.00 in0.0 mm
09:45 PM 68.1°F20.1°C 57.7°F14.3°C 69% 1.3 mph ESE2.1 kmh ESE 1.3 mph2.1 kmh 29.73 in1006.8 mb 0.00 in0.0 mm 0.00 in0.0 mm 0.00 in0.0 mm
09:40 PM 68.7°F20.4°C 57.5°F14.2°C 67% Calm Calm 1.0 mph1.6 kmh 29.73 in1006.8 mb 0.00 in0.0 mm 0.00 in0.0 mm 0.00 in0.0 mm
09:35 PM 69.2°F20.7°C 57.5°F14.2°C 66% Calm Calm 1.3 mph2.1 kmh 29.73 in1006.8 mb 0.00 in0.0 mm 0.00 in0.0 mm 0.00 in0.0 mm
09:30 PM 69.5°F20.8°C 56.1°F13.4°C 62% Calm Calm 1.3 mph2.1 kmh 29.74 in1007.1 mb 0.00 in0.0 mm 0.00 in0.0 mm 0.00 in0.0 mm
09:25 PM 69.8°F21.0°C 56.4°F13.6°C 62% 1.3 mph SE2.1 kmh SE 1.3 mph2.1 kmh 29.74 in1007.1 mb 0.00 in0.0 mm 0.00 in0.0 mm 0.00 in0.0 mm
09:19 PM 70.4°F21.3°C 56.5°F13.6°C 61% Calm Calm 2.0 mph3.2 kmh 29.74 in1007.1 mb 0.00 in0.0 mm 0.00 in0.0 mm 0.00 in0.0 mm
09:14 PM 70.9°F21.6°C 56.0°F13.3°C 59% Calm Calm 2.0 mph3.2 kmh 29.74 in1007.1 mb 0.00 in0.0 mm 0.00 in0.0 mm 0.00 in0.0 mm
09:09 PM 71.7°F22.1°C 56.8°F13.8°C 59% 1.3 mph SSE2.1 kmh SSE 7.0 mph11.3 kmh 29.73 in1006.8 mb 0.00 in0.0 mm 0.00 in0.0 mm 0.00 in0.0 mm
09:04 PM 72.0°F22.2°C 55.6°F13.1°C 56% 1.3 mph S2.1 kmh S 7.0 mph11.3 kmh 29.73 in1006.8 mb 0.00 in0.0 mm 0.00 in0.0 mm 0.00 in0.0 mm
08:59 PM 72.2°F22.3°C 55.8°F13.2°C 56% 1.7 mph SW2.7 kmh SW 7.5 mph12.1 kmh 29.73 in1006.8 mb 0.00 in0.0 mm 0.00 in0.0 mm 0.00 in0.0 mm
08:54 PM 72.4°F22.4°C 56.0°F13.3°C 56% 5.5 mph SSW8.9 kmh SSW 7.5 mph12.1 kmh 29.73 in1006.8 mb 0.00 in0.0 mm 0.00 in0.0 mm 0.00 in0.0 mm
08:49 PM 72.5°F22.5°C 56.1°F13.4°C 56% 2.5 mph S4.0 kmh S 7.0 mph11.3 kmh 29.73 in1006.8 mb 0.00 in0.0 mm 0.00 in0.0 mm 0.00 in0.0 mm
08:44 PM 72.7°F22.6°C 56.3°F13.5°C 56% 1.6 mph SSW2.6 kmh SSW 7.0 mph11.3 kmh 29.73 in1006.8 mb 0.00 in0.0 mm 0.00 in0.0 mm 0.00 in0.0 mm
08:39 PM 72.9°F22.7°C 55.9°F13.3°C 55% 1.3 mph SSW2.1 kmh SSW 8.8 mph14.2 kmh 29.73 in1006.8 mb 0.00 in0.0 mm 0.00 in0.0 mm 0.00 in0.0 mm
08:34 PM 72.9°F22.7°C 55.9°F13.3°C 55% 3.1 mph S5.0 kmh S 8.8 mph14.2 kmh 29.74 in1007.1 mb 0.00 in0.0 mm 0.00 in0.0 mm 0.00 in0.0 mm
08:29 PM 73.3°F22.9°C 56.3°F13.5°C 55% 2.4 mph S3.9 kmh S 8.0 mph12.9 kmh 29.74 in1007.1 mb 0.00 in0.0 mm 0.00 in0.0 mm 0.00 in0.0 mm
08:24 PM 73.5°F23.1°C 56.0°F13.3°C 54% 2.9 mph S4.7 kmh S 11.3 mph18.2 kmh 29.74 in1007.1 mb 0.00 in0.0 mm 0.00 in0.0 mm 0.00 in0.0 mm
08:19 PM 73.6°F23.1°C 56.1°F13.4°C 54% 5.3 mph S8.5 kmh S 11.3 mph18.2 kmh 29.74 in1007.1 mb 0.00 in0.0 mm 0.00 in0.0 mm 0.00 in0.0 mm
08:14 PM 73.7°F23.2°C 56.2°F13.4°C 54% 3.4 mph SSW5.5 kmh SSW 11.3 mph18.2 kmh 29.74 in1007.1 mb 0.00 in0.0 mm 0.00 in0.0 mm 0.00 in0.0 mm
08:09 PM 74.0°F23.3°C 56.4°F13.6°C 54% 2.1 mph S3.4 kmh S 11.3 mph18.2 kmh 29.74 in1007.1 mb 0.00 in0.0 mm 0.00 in0.0 mm 0.00 in0.0 mm
08:04 PM 74.2°F23.4°C 56.6°F13.7°C 54% 1.3 mph SSW2.1 kmh SSW 7.0 mph11.3 kmh 29.75 in1007.5 mb 0.00 in0.0 mm 0.00 in0.0 mm 0.00 in0.0 mm
07:41 PM 74.8°F23.8°C 56.7°F13.7°C 53% 3.7 mph S6.0 kmh S 11.0 mph17.7 kmh 29.75 in1007.5 mb 0.00 in0.0 mm 0.00 in0.0 mm 0.00 in0.0 mm
07:36 PM 75.0°F23.9°C 56.8°F13.8°C 53% 3.8 mph S6.1 kmh S 13.8 mph22.2 kmh 29.75 in1007.5 mb 0.00 in0.0 mm 0.00 in0.0 mm 0.00 in0.0 mm
07:31 PM 74.9°F23.8°C 56.7°F13.7°C 53% 7.1 mph S11.4 kmh S 13.8 mph22.2 kmh 29.75 in1007.5 mb 0.00 in0.0 mm 0.00 in0.0 mm 0.00 in0.0 mm
07:26 PM 75.1°F23.9°C 56.9°F13.8°C 53% 2.0 mph S3.2 kmh S 11.3 mph18.2 kmh 29.75 in1007.5 mb 0.00 in0.0 mm 0.00 in0.0 mm 0.00 in0.0 mm
07:21 PM 75.2°F24.0°C 57.6°F14.2°C 54% 3.5 mph S5.6 kmh S 11.3 mph18.2 kmh 29.75 in1007.5 mb 0.00 in0.0 mm 0.00 in0.0 mm 0.00 in0.0 mm
07:15 PM 75.1°F23.9°C 56.9°F13.8°C 53% 2.8 mph S4.5 kmh S 6.0 mph9.7 kmh 29.75 in1007.5 mb 0.00 in0.0 mm 0.00 in0.0 mm 0.00 in0.0 mm
07:10 PM 75.6°F24.2°C 57.4°F14.1°C 53% 1.6 mph S2.6 kmh S 7.5 mph12.1 kmh 29.75 in1007.5 mb 0.00 in0.0 mm 0.00 in0.0 mm 0.00 in0.0 mm
07:05 PM 75.8°F24.3°C 57.6°F14.2°C 53% 3.0 mph S4.8 kmh S 8.8 mph14.2 kmh 29.75 in1007.5 mb 0.00 in0.0 mm 0.00 in0.0 mm 0.00 in0.0 mm
07:00 PM 76.0°F24.4°C 57.2°F14.0°C 52% 4.3 mph S6.9 kmh S 11.0 mph17.7 kmh 29.75 in1007.5 mb 0.00 in0.0 mm 0.00 in0.0 mm 0.00 in0.0 mm
06:55 PM 76.2°F24.6°C 56.3°F13.5°C 50% 4.7 mph S7.6 kmh S 11.0 mph17.7 kmh 29.75 in1007.5 mb 0.00 in0.0 mm 0.00 in0.0 mm 0.00 in0.0 mm
06:49 PM 76.4°F24.7°C 57.0°F13.9°C 51% 5.2 mph S8.4 kmh S 14.0 mph22.5 kmh 29.75 in1007.5 mb 0.00 in0.0 mm 0.00 in0.0 mm 0.00 in0.0 mm
06:44 PM 76.6°F24.8°C 56.7°F13.7°C 50% 5.8 mph S9.3 kmh S 14.0 mph22.5 kmh 29.75 in1007.5 mb 0.00 in0.0 mm 0.00 in0.0 mm 0.00 in0.0 mm
06:39 PM 76.7°F24.8°C 56.8°F13.8°C 50% 5.1 mph SSW8.2 kmh SSW 17.5 mph28.2 kmh 29.75 in1007.5 mb 0.00 in0.0 mm 0.00 in0.0 mm 0.00 in0.0 mm
06:34 PM 77.0°F25.0°C 56.5°F13.6°C 49% 7.0 mph SSW11.3 kmh SSW 17.5 mph28.2 kmh 29.75 in1007.5 mb 0.00 in0.0 mm 0.00 in0.0 mm 0.00 in0.0 mm
06:29 PM 77.2°F25.1°C 56.6°F13.7°C 49% 3.2 mph S5.1 kmh S 13.0 mph20.9 kmh 29.75 in1007.5 mb 0.00 in0.0 mm 0.00 in0.0 mm 0.00 in0.0 mm
06:24 PM 77.5°F25.3°C 56.9°F13.8°C 49% 3.1 mph S5.0 kmh S 13.0 mph20.9 kmh 29.75 in1007.5 mb 0.00 in0.0 mm 0.00 in0.0 mm 0.00 in0.0 mm
06:19 PM 77.6°F25.3°C 56.4°F13.6°C 48% 3.4 mph S5.5 kmh S 16.3 mph26.2 kmh 29.76 in1007.8 mb 0.00 in0.0 mm 0.00 in0.0 mm 0.00 in0.0 mm
06:14 PM 77.6°F25.3°C 56.4°F13.6°C 48% 7.9 mph S12.7 kmh S 16.3 mph26.2 kmh 29.76 in1007.8 mb 0.00 in0.0 mm 0.00 in0.0 mm 0.00 in0.0 mm
06:09 PM 77.8°F25.4°C 56.6°F13.7°C 48% 4.3 mph SSW6.9 kmh SSW 13.0 mph20.9 kmh 29.76 in1007.8 mb 0.00 in0.0 mm 0.00 in0.0 mm 0.00 in0.0 mm
06:04 PM 77.8°F25.4°C 56.6°F13.7°C 48% 5.9 mph SSW9.5 kmh SSW 13.0 mph20.9 kmh 29.76 in1007.8 mb 0.00 in0.0 mm 0.00 in0.0 mm 0.00 in0.0 mm
05:59 PM 77.9°F25.5°C 56.7°F13.7°C 48% 4.8 mph S7.7 kmh S 16.3 mph26.2 kmh 29.77 in1008.1 mb 0.00 in0.0 mm 0.00 in0.0 mm 0.00 in0.0 mm
05:54 PM 78.0°F25.6°C 55.6°F13.1°C 46% 5.7 mph SSW9.2 kmh SSW 18.0 mph29.0 kmh 29.77 in1008.1 mb 0.00 in0.0 mm 0.00 in0.0 mm 0.00 in0.0 mm
05:49 PM 78.3°F25.7°C 55.8°F13.2°C 46% 4.5 mph S7.2 kmh S 18.0 mph29.0 kmh 29.77 in1008.1 mb 0.00 in0.0 mm 0.00 in0.0 mm 0.00 in0.0 mm
05:44 PM 78.3°F25.7°C 56.5°F13.6°C 47% 6.5 mph SSW10.5 kmh SSW 21.3 mph34.3 kmh 29.77 in1008.1 mb 0.00 in0.0 mm 0.00 in0.0 mm 0.00 in0.0 mm
05:39 PM 78.5°F25.8°C 55.4°F13.0°C 45% 12.2 mph S19.6 kmh S 21.3 mph34.3 kmh 29.78 in1008.5 mb 0.00 in0.0 mm 0.00 in0.0 mm 0.00 in0.0 mm
05:34 PM 78.6°F25.9°C 56.1°F13.4°C 46% 5.3 mph SSW8.5 kmh SSW 20.0 mph32.2 kmh 29.78 in1008.5 mb 0.00 in0.0 mm 0.00 in0.0 mm 0.00 in0.0 mm
05:29 PM 78.8°F26.0°C 56.3°F13.5°C 46% 7.7 mph S12.4 kmh S 20.0 mph32.2 kmh 29.78 in1008.5 mb 0.00 in0.0 mm 0.00 in0.0 mm 0.00 in0.0 mm
05:24 PM 79.1°F26.2°C 56.6°F13.7°C 46% 7.3 mph S11.7 kmh S 16.3 mph26.2 kmh 29.78 in1008.5 mb 0.00 in0.0 mm 0.00 in0.0 mm 0.00 in0.0 mm
05:19 PM 78.9°F26.1°C 57.0°F13.9°C 47% 3.6 mph SSE5.8 kmh SSE 15.0 mph24.1 kmh 29.78 in1008.5 mb 0.00 in0.0 mm 0.00 in0.0 mm 0.00 in0.0 mm
05:14 PM 78.8°F26.0°C 56.3°F13.5°C 46% 5.3 mph SSW8.5 kmh SSW 15.0 mph24.1 kmh 29.78 in1008.5 mb 0.00 in0.0 mm 0.00 in0.0 mm 0.00 in0.0 mm
05:09 PM 78.8°F26.0°C 57.5°F14.2°C 48% 2.5 mph SSE4.0 kmh SSE 12.5 mph20.1 kmh 29.78 in1008.5 mb 0.00 in0.0 mm 0.00 in0.0 mm 0.00 in0.0 mm
05:04 PM 78.5°F25.8°C 57.2°F14.0°C 48% 3.3 mph SSE5.3 kmh SSE 18.0 mph29.0 kmh 29.78 in1008.5 mb 0.00 in0.0 mm 0.00 in0.0 mm 0.00 in0.0 mm
04:59 PM 78.4°F25.8°C 55.9°F13.3°C 46% 5.9 mph S9.5 kmh S 19.0 mph30.6 kmh 29.78 in1008.5 mb 0.00 in0.0 mm 0.00 in0.0 mm 0.00 in0.0 mm
04:54 PM 78.4°F25.8°C 55.9°F13.3°C 46% 6.2 mph S10.0 kmh S 21.3 mph34.3 kmh 29.80 in1009.1 mb 0.00 in0.0 mm 0.00 in0.0 mm 0.00 in0.0 mm
04:49 PM 78.3°F25.7°C 55.2°F12.9°C 45% 11.8 mph S19.0 kmh S 23.8 mph38.3 kmh 29.80 in1009.1 mb 0.00 in0.0 mm 0.00 in0.0 mm 0.00 in0.0 mm
04:44 PM 78.3°F25.7°C 54.6°F12.6°C 44% 10.7 mph S17.2 kmh S 23.8 mph38.3 kmh 29.80 in1009.1 mb 0.00 in0.0 mm 0.00 in0.0 mm 0.00 in0.0 mm
04:39 PM 78.1°F25.6°C 56.3°F13.5°C 47% 2.0 mph E3.2 kmh E 21.3 mph34.3 kmh 29.80 in1009.1 mb 0.00 in0.0 mm 0.00 in0.0 mm 0.00 in0.0 mm
04:34 PM 77.9°F25.5°C 55.5°F13.1°C 46% 7.3 mph SSW11.7 kmh SSW 27.5 mph44.3 kmh 29.81 in1009.5 mb 0.00 in0.0 mm 0.00 in0.0 mm 0.00 in0.0 mm
04:29 PM 78.0°F25.6°C 54.9°F12.7°C 45% 8.1 mph SSW13.0 kmh SSW 27.5 mph44.3 kmh 29.81 in1009.5 mb 0.00 in0.0 mm 0.00 in0.0 mm 0.00 in0.0 mm
04:24 PM 77.8°F25.4°C 56.6°F13.7°C 48% 6.9 mph SSE11.1 kmh SSE 25.0 mph40.2 kmh 29.82 in1009.8 mb 0.00 in0.0 mm 0.00 in0.0 mm 0.00 in0.0 mm
04:19 PM 77.7°F25.4°C 55.9°F13.3°C 47% 8.6 mph SSW13.8 kmh SSW 25.0 mph40.2 kmh 29.82 in1009.8 mb 0.00 in0.0 mm 0.00 in0.0 mm 0.00 in0.0 mm
04:14 PM 77.5°F25.3°C 55.7°F13.2°C 47% 7.4 mph SSW11.9 kmh SSW 17.5 mph28.2 kmh 29.82 in1009.8 mb 0.00 in0.0 mm 0.00 in0.0 mm 0.00 in0.0 mm
04:09 PM 77.2°F25.1°C 56.6°F13.7°C 49% 6.1 mph SSW9.8 kmh SSW 17.5 mph28.2 kmh 29.82 in1009.8 mb 0.00 in0.0 mm 0.00 in0.0 mm 0.00 in0.0 mm
04:04 PM 76.9°F24.9°C 55.8°F13.2°C 48% 6.3 mph SSE10.1 kmh SSE 16.3 mph26.2 kmh 29.83 in1010.2 mb 0.00 in0.0 mm 0.00 in0.0 mm 0.00 in0.0 mm
03:59 PM 77.0°F25.0°C 56.5°F13.6°C 49% 7.1 mph S11.4 kmh S 15.0 mph24.1 kmh 29.83 in1010.2 mb 0.00 in0.0 mm 0.00 in0.0 mm 0.00 in0.0 mm
03:54 PM 77.1°F25.1°C 57.1°F13.9°C 50% 5.2 mph SSE8.4 kmh SSE 16.3 mph26.2 kmh 29.84 in1010.5 mb 0.00 in0.0 mm 0.00 in0.0 mm 0.00 in0.0 mm
03:49 PM 77.0°F25.0°C 55.9°F13.3°C 48% 7.6 mph S12.2 kmh S 16.3 mph26.2 kmh 29.84 in1010.5 mb 0.00 in0.0 mm 0.00 in0.0 mm 0.00 in0.0 mm
03:44 PM 77.2°F25.1°C 55.4°F13.0°C 47% 6.8 mph S10.9 kmh S 16.3 mph26.2 kmh 29.85 in1010.8 mb 0.00 in0.0 mm 0.00 in0.0 mm 0.00 in0.0 mm
03:39 PM 77.4°F25.2°C 56.2°F13.4°C 48% 5.7 mph S9.2 kmh S 21.0 mph33.8 kmh 29.85 in1010.8 mb 0.00 in0.0 mm 0.00 in0.0 mm 0.00 in0.0 mm
03:34 PM 77.3°F25.2°C 56.1°F13.4°C 48% 6.6 mph SW10.6 kmh SW 21.0 mph33.8 kmh 29.85 in1010.8 mb 0.00 in0.0 mm 0.00 in0.0 mm 0.00 in0.0 mm
03:29 PM 76.8°F24.9°C 56.3°F13.5°C 49% 4.0 mph S6.4 kmh S 25.0 mph40.2 kmh 29.86 in1011.2 mb 0.00 in0.0 mm 0.00 in0.0 mm 0.00 in0.0 mm
03:24 PM 76.9°F24.9°C 55.8°F13.2°C 48% 2.9 mph S4.7 kmh S 25.0 mph40.2 kmh 29.86 in1011.2 mb 0.00 in0.0 mm 0.00 in0.0 mm 0.00 in0.0 mm
03:19 PM 77.6°F25.3°C 58.2°F14.6°C 51% 4.9 mph SSE7.9 kmh SSE 23.0 mph37.0 kmh 29.86 in1011.2 mb 0.00 in0.0 mm 0.00 in0.0 mm 0.00 in0.0 mm
03:14 PM 77.2°F25.1°C 56.0°F13.3°C 48% 9.4 mph S15.1 kmh S 23.0 mph37.0 kmh 29.87 in1011.5 mb 0.00 in0.0 mm 0.00 in0.0 mm 0.00 in0.0 mm
03:09 PM 77.3°F25.2°C 55.5°F13.1°C 47% 11.7 mph SSW18.8 kmh SSW 30.0 mph48.3 kmh 29.88 in1011.9 mb 0.00 in0.0 mm 0.00 in0.0 mm 0.00 in0.0 mm
03:04 PM 78.0°F25.6°C 55.6°F13.1°C 46% 13.8 mph SSW22.2 kmh SSW 30.0 mph48.3 kmh 29.88 in1011.9 mb 0.00 in0.0 mm 0.00 in0.0 mm 0.00 in0.0 mm
02:59 PM 78.0°F25.6°C 55.6°F13.1°C 46% 4.6 mph ESE7.4 kmh ESE 18.8 mph30.3 kmh 29.88 in1011.9 mb 0.00 in0.0 mm 0.00 in0.0 mm 0.00 in0.0 mm
02:54 PM 78.4°F25.8°C 56.6°F13.7°C 47% 6.1 mph SSE9.8 kmh SSE 18.8 mph30.3 kmh 29.89 in1012.2 mb 0.00 in0.0 mm 0.00 in0.0 mm 0.00 in0.0 mm
02:49 PM 78.4°F25.8°C 55.9°F13.3°C 46% 7.2 mph S11.6 kmh S 17.5 mph28.2 kmh 29.89 in1012.2 mb 0.00 in0.0 mm 0.00 in0.0 mm 0.00 in0.0 mm
02:44 PM 78.0°F25.6°C 55.6°F13.1°C 46% 3.8 mph SE6.1 kmh SE 18.8 mph30.3 kmh 29.89 in1012.2 mb 0.00 in0.0 mm 0.00 in0.0 mm 0.00 in0.0 mm
02:39 PM 78.1°F25.6°C 56.9°F13.8°C 48% 4.4 mph S7.1 kmh S 18.8 mph30.3 kmh 29.89 in1012.2 mb 0.00 in0.0 mm 0.00 in0.0 mm 0.00 in0.0 mm
02:34 PM 77.8°F25.4°C 56.0°F13.3°C 47% 8.0 mph S12.9 kmh S 19.0 mph30.6 kmh 29.90 in1012.5 mb 0.00 in0.0 mm 0.00 in0.0 mm 0.00 in0.0 mm
02:29 PM 77.3°F25.2°C 56.7°F13.7°C 49% 8.7 mph S14.0 kmh S 19.0 mph30.6 kmh 29.90 in1012.5 mb 0.00 in0.0 mm 0.00 in0.0 mm 0.00 in0.0 mm
02:24 PM 77.1°F25.1°C 56.0°F13.3°C 48% 7.7 mph SSW12.4 kmh SSW 23.8 mph38.3 kmh 29.91 in1012.9 mb 0.00 in0.0 mm 0.00 in0.0 mm 0.00 in0.0 mm
02:19 PM 76.9°F24.9°C 56.9°F13.8°C 50% 5.0 mph S8.0 kmh S 23.8 mph38.3 kmh 29.91 in1012.9 mb 0.00 in0.0 mm 0.00 in0.0 mm 0.00 in0.0 mm
02:13 PM 76.9°F24.9°C 56.4°F13.6°C 49% 5.3 mph S8.5 kmh S 22.5 mph36.2 kmh 29.90 in1012.5 mb 0.00 in0.0 mm 0.00 in0.0 mm 0.00 in0.0 mm
02:08 PM 77.3°F25.2°C 54.9°F12.7°C 46% 12.4 mph S20.0 kmh S 22.5 mph36.2 kmh 29.91 in1012.9 mb 0.00 in0.0 mm 0.00 in0.0 mm 0.00 in0.0 mm
02:03 PM 77.4°F25.2°C 56.8°F13.8°C 49% 9.2 mph S14.8 kmh S 25.0 mph40.2 kmh 29.91 in1012.9 mb 0.00 in0.0 mm 0.00 in0.0 mm 0.00 in0.0 mm
01:58 PM 77.2°F25.1°C 56.0°F13.3°C 48% 11.4 mph S18.3 kmh S 25.0 mph40.2 kmh 29.92 in1013.2 mb 0.00 in0.0 mm 0.00 in0.0 mm 0.00 in0.0 mm
01:53 PM 76.8°F24.9°C 58.0°F14.4°C 52% 4.4 mph S7.1 kmh S 18.8 mph30.3 kmh 29.92 in1013.2 mb 0.00 in0.0 mm 0.00 in0.0 mm 0.00 in0.0 mm
01:48 PM 76.3°F24.6°C 59.1°F15.1°C 55% 7.4 mph S11.9 kmh S 18.8 mph30.3 kmh 29.92 in1013.2 mb 0.00 in0.0 mm 0.00 in0.0 mm 0.00 in0.0 mm
01:43 PM 75.6°F24.2°C 57.4°F14.1°C 53% 8.2 mph S13.2 kmh S 17.5 mph28.2 kmh 29.92 in1013.2 mb 0.00 in0.0 mm 0.00 in0.0 mm 0.00 in0.0 mm
01:38 PM 74.9°F23.8°C 57.8°F14.3°C 55% 8.3 mph S13.4 kmh S 15.0 mph24.1 kmh 29.92 in1013.2 mb 0.00 in0.0 mm 0.00 in0.0 mm 0.00 in0.0 mm
01:33 PM 74.7°F23.7°C 58.6°F14.8°C 57% 7.9 mph SSW12.7 kmh SSW 15.0 mph24.1 kmh 29.93 in1013.5 mb 0.00 in0.0 mm 0.00 in0.0 mm 0.00 in0.0 mm
01:28 PM 75.1°F23.9°C 59.0°F15.0°C 57% 4.8 mph SSE7.7 kmh SSE 17.0 mph27.4 kmh 29.93 in1013.5 mb 0.00 in0.0 mm 0.00 in0.0 mm 0.00 in0.0 mm
01:23 PM 75.3°F24.1°C 59.2°F15.1°C 57% 5.9 mph SSW9.5 kmh SSW 17.0 mph27.4 kmh 29.93 in1013.5 mb 0.00 in0.0 mm 0.00 in0.0 mm 0.00 in0.0 mm
01:18 PM 75.5°F24.2°C 58.4°F14.7°C 55% 5.1 mph S8.2 kmh S 21.3 mph34.3 kmh 29.93 in1013.5 mb 0.00 in0.0 mm 0.00 in0.0 mm 0.00 in0.0 mm
01:13 PM 76.7°F24.8°C 59.0°F15.0°C 54% 7.2 mph S11.6 kmh S 21.3 mph34.3 kmh 29.93 in1013.5 mb 0.00 in0.0 mm 0.00 in0.0 mm 0.00 in0.0 mm
01:08 PM 77.5°F25.3°C 58.6°F14.8°C 52% 8.7 mph S14.0 kmh S 20.0 mph32.2 kmh 29.94 in1013.9 mb 0.00 in0.0 mm 0.00 in0.0 mm 0.00 in0.0 mm
01:03 PM 77.3°F25.2°C 59.0°F15.0°C 53% 6.2 mph S10.0 kmh S 18.0 mph29.0 kmh 29.94 in1013.9 mb 0.00 in0.0 mm 0.00 in0.0 mm 0.00 in0.0 mm
12:58 PM 76.6°F24.8°C 58.3°F14.6°C 53% 4.8 mph SW7.7 kmh SW 22.5 mph36.2 kmh 29.94 in1013.9 mb 0.00 in0.0 mm 0.00 in0.0 mm 0.00 in0.0 mm
12:53 PM 76.2°F24.6°C 58.5°F14.7°C 54% 9.5 mph S15.3 kmh S 22.5 mph36.2 kmh 29.94 in1013.9 mb 0.00 in0.0 mm 0.00 in0.0 mm 0.00 in0.0 mm
12:48 PM 75.5°F24.2°C 59.4°F15.2°C 57% 7.4 mph SSW11.9 kmh SSW 23.8 mph38.3 kmh 29.95 in1014.2 mb 0.00 in0.0 mm 0.00 in0.0 mm 0.00 in0.0 mm
12:43 PM 75.4°F24.1°C 57.2°F14.0°C 53% 15.7 mph SSW25.3 kmh SSW 23.8 mph38.3 kmh 29.94 in1013.9 mb 0.00 in0.0 mm 0.00 in0.0 mm 0.00 in0.0 mm
12:38 PM 74.9°F23.8°C 59.3°F15.2°C 58% 8.5 mph S13.7 kmh S 26.0 mph41.8 kmh 29.95 in1014.2 mb 0.00 in0.0 mm 0.00 in0.0 mm 0.00 in0.0 mm
12:33 PM 74.9°F23.8°C 58.8°F14.9°C 57% 6.6 mph S10.6 kmh S 26.0 mph41.8 kmh 29.95 in1014.2 mb 0.00 in0.0 mm 0.00 in0.0 mm 0.00 in0.0 mm
12:28 PM 74.6°F23.7°C 58.5°F14.7°C 57% 8.0 mph S12.9 kmh S 31.3 mph50.4 kmh 29.95 in1014.2 mb 0.00 in0.0 mm 0.00 in0.0 mm 0.00 in0.0 mm
12:23 PM 74.5°F23.6°C 58.4°F14.7°C 57% 16.4 mph S26.4 kmh S 31.3 mph50.4 kmh 29.95 in1014.2 mb 0.00 in0.0 mm 0.00 in0.0 mm 0.00 in0.0 mm
12:18 PM 74.6°F23.7°C 59.0°F15.0°C 58% 14.4 mph SSW23.2 kmh SSW 30.0 mph48.3 kmh 29.95 in1014.2 mb 0.00 in0.0 mm 0.00 in0.0 mm 0.00 in0.0 mm
12:13 PM 74.6°F23.7°C 59.0°F15.0°C 58% 14.7 mph SSW23.7 kmh SSW 30.0 mph48.3 kmh 29.95 in1014.2 mb 0.00 in0.0 mm 0.00 in0.0 mm 0.00 in0.0 mm
12:08 PM 73.9°F23.3°C 60.7°F15.9°C 63% 9.6 mph SSW15.4 kmh SSW 25.0 mph40.2 kmh 29.95 in1014.2 mb 0.00 in0.0 mm 0.00 in0.0 mm 0.00 in0.0 mm
12:03 PM 73.2°F22.9°C 60.1°F15.6°C 63% 7.5 mph SSW12.1 kmh SSW 20.0 mph32.2 kmh 29.95 in1014.2 mb 0.00 in0.0 mm 0.00 in0.0 mm 0.00 in0.0 mm
11:58 AM 73.1°F22.8°C 60.4°F15.8°C 64% 11.6 mph S18.7 kmh S 21.3 mph34.3 kmh 29.95 in1014.2 mb 0.00 in0.0 mm 0.00 in0.0 mm 0.00 in0.0 mm
11:53 AM 73.2°F22.9°C 60.1°F15.6°C 63% 6.2 mph S10.0 kmh S 21.3 mph34.3 kmh 29.97 in1014.9 mb 0.00 in0.0 mm 0.00 in0.0 mm 0.00 in0.0 mm
11:48 AM 73.7°F23.2°C 61.4°F16.3°C 65% 3.4 mph S5.5 kmh S 16.3 mph26.2 kmh 29.97 in1014.9 mb 0.00 in0.0 mm 0.00 in0.0 mm 0.00 in0.0 mm
11:43 AM 73.3°F22.9°C 61.0°F16.1°C 65% 4.7 mph S7.6 kmh S 19.0 mph30.6 kmh 29.97 in1014.9 mb 0.00 in0.0 mm 0.00 in0.0 mm 0.00 in0.0 mm
11:38 AM 73.2°F22.9°C 60.1°F15.6°C 63% 4.3 mph S6.9 kmh S 19.0 mph30.6 kmh 29.97 in1014.9 mb 0.00 in0.0 mm 0.00 in0.0 mm 0.00 in0.0 mm
11:33 AM 72.9°F22.7°C 60.7°F15.9°C 65% 4.7 mph S7.6 kmh S 22.5 mph36.2 kmh 29.97 in1014.9 mb 0.00 in0.0 mm 0.00 in0.0 mm 0.00 in0.0 mm
11:28 AM 72.6°F22.6°C 59.9°F15.5°C 64% 8.6 mph S13.8 kmh S 22.5 mph36.2 kmh 29.98 in1015.2 mb 0.00 in0.0 mm 0.00 in0.0 mm 0.00 in0.0 mm
11:23 AM 72.6°F22.6°C 61.2°F16.2°C 67% 4.8 mph S7.7 kmh S 18.8 mph30.3 kmh 29.97 in1014.9 mb 0.00 in0.0 mm 0.00 in0.0 mm 0.00 in0.0 mm
11:18 AM 72.4°F22.4°C 61.0°F16.1°C 67% 10.0 mph SSW16.1 kmh SSW 18.8 mph30.3 kmh 29.97 in1014.9 mb 0.00 in0.0 mm 0.00 in0.0 mm 0.00 in0.0 mm
11:13 AM 71.3°F21.8°C 61.2°F16.2°C 70% 8.2 mph S13.2 kmh S 18.8 mph30.3 kmh 29.97 in1014.9 mb 0.00 in0.0 mm 0.00 in0.0 mm 0.00 in0.0 mm
11:08 AM 70.9°F21.6°C 60.8°F16.0°C 70% 4.3 mph S6.9 kmh S 11.3 mph18.2 kmh 29.98 in1015.2 mb 0.00 in0.0 mm 0.00 in0.0 mm 0.00 in0.0 mm
11:03 AM 71.0°F21.7°C 61.3°F16.3°C 71% 1.7 mph S2.7 kmh S 5.0 mph8.0 kmh 29.98 in1015.2 mb 0.00 in0.0 mm 0.00 in0.0 mm 0.00 in0.0 mm
10:58 AM 71.3°F21.8°C 61.2°F16.2°C 70% 1.4 mph S2.3 kmh S 5.0 mph8.0 kmh 29.97 in1014.9 mb 0.00 in0.0 mm 0.00 in0.0 mm 0.00 in0.0 mm
10:53 AM 71.5°F21.9°C 61.4°F16.3°C 70% 1.3 mph SSW2.1 kmh SSW 6.3 mph10.1 kmh 29.97 in1014.9 mb 0.00 in0.0 mm 0.00 in0.0 mm 0.00 in0.0 mm
10:48 AM 71.8°F22.1°C 60.9°F16.1°C 68% 3.8 mph S6.1 kmh S 6.3 mph10.1 kmh 29.97 in1014.9 mb 0.00 in0.0 mm 0.00 in0.0 mm 0.00 in0.0 mm
10:43 AM 72.2°F22.3°C 61.2°F16.2°C 68% 1.3 mph SSE2.1 kmh SSE 6.3 mph10.1 kmh 29.97 in1014.9 mb 0.00 in0.0 mm 0.00 in0.0 mm 0.00 in0.0 mm
10:38 AM 72.2°F22.3°C 61.2°F16.2°C 68% 1.6 mph WSW2.6 kmh WSW 6.3 mph10.1 kmh 29.95 in1014.2 mb 0.00 in0.0 mm 0.00 in0.0 mm 0.00 in0.0 mm
10:32 AM 72.3°F22.4°C 61.3°F16.3°C 68% 2.9 mph SSW4.7 kmh SSW 6.3 mph10.1 kmh 29.97 in1014.9 mb 0.00 in0.0 mm 0.00 in0.0 mm 0.00 in0.0 mm
10:28 AM 72.3°F22.4°C 60.9°F16.1°C 67% 2.8 mph SW4.5 kmh SW 6.3 mph10.1 kmh 29.97 in1014.9 mb 0.00 in0.0 mm 0.00 in0.0 mm 0.00 in0.0 mm
10:23 AM 71.6°F22.0°C 61.5°F16.4°C 70% 1.3 mph W2.1 kmh W 6.3 mph10.1 kmh 29.97 in1014.9 mb 0.00 in0.0 mm 0.00 in0.0 mm 0.00 in0.0 mm
10:17 AM 70.9°F21.6°C 60.8°F16.0°C 70% 2.4 mph SSE3.9 kmh SSE 7.5 mph12.1 kmh 29.97 in1014.9 mb 0.00 in0.0 mm 0.00 in0.0 mm 0.00 in0.0 mm
10:12 AM 70.4°F21.3°C 60.3°F15.7°C 70% 3.3 mph S5.3 kmh S 7.5 mph12.1 kmh 29.98 in1015.2 mb 0.00 in0.0 mm 0.00 in0.0 mm 0.00 in0.0 mm
10:07 AM 70.2°F21.2°C 60.1°F15.6°C 70% 2.3 mph ESE3.7 kmh ESE 5.0 mph8.0 kmh 29.98 in1015.2 mb 0.00 in0.0 mm 0.00 in0.0 mm 0.00 in0.0 mm
10:02 AM 69.8°F21.0°C 60.1°F15.6°C 71% 2.6 mph NE4.2 kmh NE 5.0 mph8.0 kmh 29.98 in1015.2 mb 0.00 in0.0 mm 0.00 in0.0 mm 0.00 in0.0 mm
09:57 AM 69.2°F20.7°C 59.6°F15.3°C 71% 1.3 mph SSW2.1 kmh SSW 6.0 mph9.7 kmh 29.99 in1015.6 mb 0.00 in0.0 mm 0.00 in0.0 mm 0.00 in0.0 mm
09:52 AM 68.4°F20.2°C 59.2°F15.1°C 72% 1.9 mph S3.1 kmh S 8.0 mph12.9 kmh 29.99 in1015.6 mb 0.00 in0.0 mm 0.00 in0.0 mm 0.00 in0.0 mm
09:47 AM 67.8°F19.9°C 59.0°F15.0°C 73% 1.9 mph SSE3.1 kmh SSE 8.8 mph14.2 kmh 29.99 in1015.6 mb 0.00 in0.0 mm 0.00 in0.0 mm 0.00 in0.0 mm
09:42 AM 67.5°F19.7°C 58.3°F14.6°C 72% 2.6 mph SSW4.2 kmh SSW 10.0 mph16.1 kmh 29.98 in1015.2 mb 0.00 in0.0 mm 0.00 in0.0 mm 0.00 in0.0 mm
09:37 AM 67.6°F19.8°C 58.4°F14.7°C 72% 5.4 mph SSW8.7 kmh SSW 10.0 mph16.1 kmh 29.98 in1015.2 mb 0.00 in0.0 mm 0.00 in0.0 mm 0.00 in0.0 mm
09:32 AM 67.4°F19.7°C 58.2°F14.6°C 72% 2.4 mph S3.9 kmh S 5.0 mph8.0 kmh 29.98 in1015.2 mb 0.00 in0.0 mm 0.00 in0.0 mm 0.00 in0.0 mm
09:27 AM 67.6°F19.8°C 58.8°F14.9°C 73% 1.8 mph S2.9 kmh S 3.8 mph6.1 kmh 29.98 in1015.2 mb 0.00 in0.0 mm 0.00 in0.0 mm 0.00 in0.0 mm
09:22 AM 67.4°F19.7°C 58.6°F14.8°C 73% Calm Calm 3.8 mph6.1 kmh 29.98 in1015.2 mb 0.00 in0.0 mm 0.00 in0.0 mm 0.00 in0.0 mm
09:17 AM 67.5°F19.7°C 59.1°F15.1°C 74% 1.8 mph S2.9 kmh S 3.8 mph6.1 kmh 29.98 in1015.2 mb 0.00 in0.0 mm 0.00 in0.0 mm 0.00 in0.0 mm
09:12 AM 67.3°F19.6°C 58.9°F14.9°C 74% 1.3 mph SW2.1 kmh SW 2.5 mph4.0 kmh 29.98 in1015.2 mb 0.00 in0.0 mm 0.00 in0.0 mm 0.00 in0.0 mm
09:07 AM 66.9°F19.4°C 58.1°F14.5°C 73% 1.8 mph SSE2.9 kmh SSE 2.5 mph4.0 kmh 29.98 in1015.2 mb 0.00 in0.0 mm 0.00 in0.0 mm 0.00 in0.0 mm
09:02 AM 66.5°F19.2°C 58.1°F14.5°C 74% Calm Calm 1.3 mph2.1 kmh 29.98 in1015.2 mb 0.00 in0.0 mm 0.00 in0.0 mm 0.00 in0.0 mm
08:57 AM 65.8°F18.8°C 58.1°F14.5°C 76% 1.3 mph ESE2.1 kmh ESE 1.3 mph2.1 kmh 29.98 in1015.2 mb 0.00 in0.0 mm 0.00 in0.0 mm 0.00 in0.0 mm
08:52 AM 65.0°F18.3°C 58.4°F14.7°C 79% Calm Calm 1.3 mph2.1 kmh 29.98 in1015.2 mb 0.00 in0.0 mm 0.00 in0.0 mm 0.00 in0.0 mm
08:47 AM 63.4°F17.4°C 57.9°F14.4°C 82% 1.3 mph ESE2.1 kmh ESE 1.3 mph2.1 kmh 29.98 in1015.2 mb 0.00 in0.0 mm 0.00 in0.0 mm 0.00 in0.0 mm
08:42 AM 61.7°F16.5°C 57.2°F14.0°C 85% 1.3 mph E2.1 kmh E 1.3 mph2.1 kmh 29.98 in1015.2 mb 0.00 in0.0 mm 0.00 in0.0 mm 0.00 in0.0 mm
08:37 AM 60.3°F15.7°C 56.7°F13.7°C 88% Calm Calm -- 29.98 in1015.2 mb 0.00 in0.0 mm 0.00 in0.0 mm 0.00 in0.0 mm
08:32 AM 59.4°F15.2°C 56.1°F13.4°C 89% Calm Calm -- 29.98 in1015.2 mb 0.00 in0.0 mm 0.00 in0.0 mm 0.00 in0.0 mm
08:27 AM 58.8°F14.9°C 55.8°F13.2°C 90% Calm Calm -- 29.98 in1015.2 mb 0.00 in0.0 mm 0.00 in0.0 mm 0.00 in0.0 mm
08:22 AM 58.2°F14.6°C 55.3°F12.9°C 90% Calm Calm -- 29.98 in1015.2 mb 0.00 in0.0 mm 0.00 in0.0 mm 0.00 in0.0 mm
08:17 AM 57.7°F14.3°C 54.8°F12.7°C 90% Calm Calm 1.0 mph1.6 kmh 29.98 in1015.2 mb 0.00 in0.0 mm 0.00 in0.0 mm 0.00 in0.0 mm
08:12 AM 57.3°F14.1°C 54.4°F12.4°C 90% Calm Calm 1.0 mph1.6 kmh 29.98 in1015.2 mb 0.00 in0.0 mm 0.00 in0.0 mm 0.00 in0.0 mm
08:07 AM 56.9°F13.8°C 54.0°F12.2°C 90% Calm Calm 1.3 mph2.1 kmh 29.98 in1015.2 mb 0.00 in0.0 mm 0.00 in0.0 mm 0.00 in0.0 mm
08:02 AM 56.5°F13.6°C 53.9°F12.2°C 91% Calm Calm 1.3 mph2.1 kmh 29.97 in1014.9 mb 0.00 in0.0 mm 0.00 in0.0 mm 0.00 in0.0 mm
07:57 AM 56.1°F13.4°C 53.2°F11.8°C 90% Calm Calm -- 29.97 in1014.9 mb 0.00 in0.0 mm 0.00 in0.0 mm 0.00 in0.0 mm
07:52 AM 55.8°F13.2°C 52.9°F11.6°C 90% Calm Calm -- 29.97 in1014.9 mb 0.00 in0.0 mm 0.00 in0.0 mm 0.00 in0.0 mm
07:47 AM 55.6°F13.1°C 52.7°F11.5°C 90% Calm Calm 1.0 mph1.6 kmh 29.97 in1014.9 mb 0.00 in0.0 mm 0.00 in0.0 mm 0.00 in0.0 mm
07:42 AM 55.6°F13.1°C 52.7°F11.5°C 90% Calm Calm 1.0 mph1.6 kmh 29.97 in1014.9 mb 0.00 in0.0 mm 0.00 in0.0 mm 0.00 in0.0 mm
07:37 AM 55.5°F13.1°C 52.6°F11.4°C 90% Calm Calm 1.3 mph2.1 kmh 29.97 in1014.9 mb 0.00 in0.0 mm 0.00 in0.0 mm 0.00 in0.0 mm
07:32 AM 55.4°F13.0°C 52.5°F11.4°C 90% Calm Calm 1.3 mph2.1 kmh 29.97 in1014.9 mb 0.00 in0.0 mm 0.00 in0.0 mm 0.00 in0.0 mm
07:27 AM 55.3°F12.9°C 52.4°F11.3°C 90% 1.3 mph E2.1 kmh E 1.3 mph2.1 kmh 29.95 in1014.2 mb 0.00 in0.0 mm 0.00 in0.0 mm 0.00 in0.0 mm
07:22 AM 55.4°F13.0°C 52.5°F11.4°C 90% Calm Calm -- 29.95 in1014.2 mb 0.00 in0.0 mm 0.00 in0.0 mm 0.00 in0.0 mm
07:17 AM 55.5°F13.1°C 52.6°F11.4°C 90% Calm Calm -- 29.95 in1014.2 mb 0.00 in0.0 mm 0.00 in0.0 mm 0.00 in0.0 mm
07:12 AM 55.5°F13.1°C 52.6°F11.4°C 90% Calm Calm -- 29.95 in1014.2 mb 0.00 in0.0 mm 0.00 in0.0 mm 0.00 in0.0 mm
07:07 AM 55.5°F13.1°C 52.6°F11.4°C 90% Calm Calm -- 29.95 in1014.2 mb 0.00 in0.0 mm 0.00 in0.0 mm 0.00 in0.0 mm
07:02 AM 55.5°F13.1°C 52.6°F11.4°C 90% Calm Calm 1.0 mph1.6 kmh 29.95 in1014.2 mb 0.00 in0.0 mm 0.00 in0.0 mm 0.00 in0.0 mm
06:57 AM 55.5°F13.1°C 52.6°F11.4°C 90% Calm Calm 1.0 mph1.6 kmh 29.95 in1014.2 mb 0.00 in0.0 mm 0.00 in0.0 mm 0.00 in0.0 mm
06:52 AM 55.4°F13.0°C 52.8°F11.6°C 91% Calm Calm 1.0 mph1.6 kmh 29.95 in1014.2 mb 0.00 in0.0 mm 0.00 in0.0 mm 0.00 in0.0 mm
06:47 AM 55.2°F12.9°C 52.6°F11.4°C 91% Calm Calm 1.0 mph1.6 kmh 29.95 in1014.2 mb 0.00 in0.0 mm 0.00 in0.0 mm 0.00 in0.0 mm
06:42 AM 55.0°F12.8°C 52.1°F11.2°C 90% Calm Calm -- 29.95 in1014.2 mb 0.00 in0.0 mm 0.00 in0.0 mm 0.00 in0.0 mm
06:37 AM 55.0°F12.8°C 52.1°F11.2°C 90% Calm Calm -- 29.95 in1014.2 mb 0.00 in0.0 mm 0.00 in0.0 mm 0.00 in0.0 mm
06:32 AM 55.1°F12.8°C 52.2°F11.2°C 90% Calm Calm -- 29.95 in1014.2 mb 0.00 in0.0 mm 0.00 in0.0 mm 0.00 in0.0 mm
06:27 AM 55.1°F12.8°C 52.2°F11.2°C 90% Calm Calm -- 29.95 in1014.2 mb 0.00 in0.0 mm 0.00 in0.0 mm 0.00 in0.0 mm
06:22 AM 55.1°F12.8°C 52.2°F11.2°C 90% Calm Calm -- 29.95 in1014.2 mb 0.00 in0.0 mm 0.00 in0.0 mm 0.00 in0.0 mm
06:17 AM 55.3°F12.9°C 52.1°F11.2°C 89% Calm Calm -- 29.95 in1014.2 mb 0.00 in0.0 mm 0.00 in0.0 mm 0.00 in0.0 mm
06:12 AM 55.4°F13.0°C 52.5°F11.4°C 90% Calm Calm -- 29.95 in1014.2 mb 0.00 in0.0 mm 0.00 in0.0 mm 0.00 in0.0 mm
06:07 AM 55.5°F13.1°C 52.3°F11.3°C 89% Calm Calm -- 29.95 in1014.2 mb 0.00 in0.0 mm 0.00 in0.0 mm 0.00 in0.0 mm
06:02 AM 55.5°F13.1°C 52.3°F11.3°C 89% Calm Calm -- 29.95 in1014.2 mb 0.00 in0.0 mm 0.00 in0.0 mm 0.00 in0.0 mm
05:57 AM 55.6°F13.1°C 52.1°F11.2°C 88% Calm Calm -- 29.95 in1014.2 mb 0.00 in0.0 mm 0.00 in0.0 mm 0.00 in0.0 mm
05:52 AM 55.8°F13.2°C 52.3°F11.3°C 88% Calm Calm -- 29.95 in1014.2 mb 0.00 in0.0 mm 0.00 in0.0 mm 0.00 in0.0 mm
05:47 AM 55.9°F13.3°C 52.4°F11.3°C 88% Calm Calm -- 29.95 in1014.2 mb 0.00 in0.0 mm 0.00 in0.0 mm 0.00 in0.0 mm
05:42 AM 55.9°F13.3°C 52.4°F11.3°C 88% Calm Calm -- 29.95 in1014.2 mb 0.00 in0.0 mm 0.00 in0.0 mm 0.00 in0.0 mm
05:37 AM 55.9°F13.3°C 52.1°F11.2°C 87% Calm Calm -- 29.95 in1014.2 mb 0.00 in0.0 mm 0.00 in0.0 mm 0.00 in0.0 mm
05:31 AM 56.1°F13.4°C 52.3°F11.3°C 87% Calm Calm -- 29.95 in1014.2 mb 0.00 in0.0 mm 0.00 in0.0 mm 0.00 in0.0 mm
05:26 AM 56.3°F13.5°C 52.2°F11.2°C 86% Calm Calm -- 29.95 in1014.2 mb 0.00 in0.0 mm 0.00 in0.0 mm 0.00 in0.0 mm
05:21 AM 56.3°F13.5°C 52.5°F11.4°C 87% Calm Calm -- 29.95 in1014.2 mb 0.00 in0.0 mm 0.00 in0.0 mm 0.00 in0.0 mm
05:16 AM 56.4°F13.6°C 52.3°F11.3°C 86% Calm Calm -- 29.95 in1014.2 mb 0.00 in0.0 mm 0.00 in0.0 mm 0.00 in0.0 mm
05:11 AM 56.5°F13.6°C 52.4°F11.3°C 86% Calm Calm -- 29.95 in1014.2 mb 0.00 in0.0 mm 0.00 in0.0 mm 0.00 in0.0 mm
05:06 AM 56.6°F13.7°C 52.1°F11.2°C 85% Calm Calm -- 29.95 in1014.2 mb 0.00 in0.0 mm 0.00 in0.0 mm 0.00 in0.0 mm
05:01 AM 56.8°F13.8°C 52.3°F11.3°C 85% Calm Calm -- 29.95 in1014.2 mb 0.00 in0.0 mm 0.00 in0.0 mm 0.00 in0.0 mm
04:56 AM 57.2°F14.0°C 52.4°F11.3°C 84% Calm Calm -- 29.95 in1014.2 mb 0.00 in0.0 mm 0.00 in0.0 mm 0.00 in0.0 mm
04:51 AM 57.5°F14.2°C 52.4°F11.3°C 83% Calm Calm -- 29.95 in1014.2 mb 0.00 in0.0 mm 0.00 in0.0 mm 0.00 in0.0 mm
04:46 AM 57.9°F14.4°C 52.5°F11.4°C 82% Calm Calm -- 29.95 in1014.2 mb 0.00 in0.0 mm 0.00 in0.0 mm 0.00 in0.0 mm
04:41 AM 58.3°F14.6°C 52.9°F11.6°C 82% Calm Calm 1.0 mph1.6 kmh 29.95 in1014.2 mb 0.00 in0.0 mm 0.00 in0.0 mm 0.00 in0.0 mm
04:36 AM 58.7°F14.8°C 52.6°F11.4°C 80% Calm Calm 1.3 mph2.1 kmh 29.95 in1014.2 mb 0.00 in0.0 mm 0.00 in0.0 mm 0.00 in0.0 mm
04:31 AM 59.1°F15.1°C 53.0°F11.7°C 80% Calm Calm 1.3 mph2.1 kmh 29.95 in1014.2 mb 0.00 in0.0 mm 0.00 in0.0 mm 0.00 in0.0 mm
04:26 AM 59.4°F15.2°C 52.9°F11.6°C 79% 1.3 mph E2.1 kmh E 1.3 mph2.1 kmh 29.95 in1014.2 mb 0.00 in0.0 mm 0.00 in0.0 mm 0.00 in0.0 mm
04:21 AM 59.6°F15.3°C 52.8°F11.6°C 78% Calm Calm 1.3 mph2.1 kmh 29.95 in1014.2 mb 0.00 in0.0 mm 0.00 in0.0 mm 0.00 in0.0 mm
04:16 AM 59.8°F15.4°C 53.0°F11.7°C 78% Calm Calm 1.3 mph2.1 kmh 29.95 in1014.2 mb 0.00 in0.0 mm 0.00 in0.0 mm 0.00 in0.0 mm
04:11 AM 60.2°F15.7°C 53.0°F11.7°C 77% Calm Calm 2.0 mph3.2 kmh 29.95 in1014.2 mb 0.00 in0.0 mm 0.00 in0.0 mm 0.00 in0.0 mm
04:06 AM 60.6°F15.9°C 52.7°F11.5°C 75% 1.3 mph E2.1 kmh E 2.0 mph3.2 kmh 29.95 in1014.2 mb 0.00 in0.0 mm 0.00 in0.0 mm 0.00 in0.0 mm
04:01 AM 61.1°F16.2°C 53.2°F11.8°C 75% 1.3 mph E2.1 kmh E 2.5 mph4.0 kmh 29.95 in1014.2 mb 0.00 in0.0 mm 0.00 in0.0 mm 0.00 in0.0 mm
03:56 AM 61.3°F16.3°C 53.1°F11.7°C 74% 1.6 mph E2.6 kmh E 2.5 mph4.0 kmh 29.95 in1014.2 mb 0.00 in0.0 mm 0.00 in0.0 mm 0.00 in0.0 mm
03:51 AM 61.4°F16.3°C 52.8°F11.6°C 73% 1.3 mph E2.1 kmh E 2.5 mph4.0 kmh 29.95 in1014.2 mb 0.00 in0.0 mm 0.00 in0.0 mm 0.00 in0.0 mm
03:46 AM 61.9°F16.6°C 52.9°F11.6°C 72% 1.3 mph E2.1 kmh E 2.5 mph4.0 kmh 29.95 in1014.2 mb 0.00 in0.0 mm 0.00 in0.0 mm 0.00 in0.0 mm
03:41 AM 62.4°F16.9°C 53.0°F11.7°C 71% 1.3 mph ESE2.1 kmh ESE 5.0 mph8.0 kmh 29.95 in1014.2 mb 0.00 in0.0 mm 0.00 in0.0 mm 0.00 in0.0 mm
03:36 AM 62.5°F16.9°C 52.7°F11.5°C 70% 1.8 mph ESE2.9 kmh ESE 5.0 mph8.0 kmh 29.95 in1014.2 mb 0.00 in0.0 mm 0.00 in0.0 mm 0.00 in0.0 mm
03:31 AM 62.8°F17.1°C 53.0°F11.7°C 70% 1.3 mph E2.1 kmh E 5.0 mph8.0 kmh 29.95 in1014.2 mb 0.00 in0.0 mm 0.00 in0.0 mm 0.00 in0.0 mm
03:26 AM 62.9°F17.2°C 53.1°F11.7°C 70% 2.4 mph SE3.9 kmh SE 5.0 mph8.0 kmh 29.95 in1014.2 mb 0.00 in0.0 mm 0.00 in0.0 mm 0.00 in0.0 mm
03:21 AM 62.9°F17.2°C 53.1°F11.7°C 70% Calm Calm 3.8 mph6.1 kmh 29.95 in1014.2 mb 0.00 in0.0 mm 0.00 in0.0 mm 0.00 in0.0 mm
03:16 AM 63.2°F17.3°C 53.0°F11.7°C 69% 1.3 mph ESE2.1 kmh ESE 2.5 mph4.0 kmh 29.95 in1014.2 mb 0.00 in0.0 mm 0.00 in0.0 mm 0.00 in0.0 mm
03:11 AM 63.5°F17.5°C 52.9°F11.6°C 68% 1.5 mph SE2.4 kmh SE 2.5 mph4.0 kmh 29.95 in1014.2 mb 0.00 in0.0 mm 0.00 in0.0 mm 0.00 in0.0 mm
03:06 AM 63.8°F17.7°C 52.8°F11.6°C 67% 1.3 mph E2.1 kmh E 1.3 mph2.1 kmh 29.95 in1014.2 mb 0.00 in0.0 mm 0.00 in0.0 mm 0.00 in0.0 mm
03:01 AM 64.4°F18.0°C 53.0°F11.7°C 66% Calm Calm 4.0 mph6.4 kmh 29.95 in1014.2 mb 0.00 in0.0 mm 0.00 in0.0 mm 0.00 in0.0 mm
02:56 AM 65.2°F18.4°C 52.9°F11.6°C 64% 1.3 mph ESE2.1 kmh ESE 4.0 mph6.4 kmh 29.95 in1014.2 mb 0.00 in0.0 mm 0.00 in0.0 mm 0.00 in0.0 mm
02:51 AM 66.0°F18.9°C 52.8°F11.6°C 62% Calm Calm 6.0 mph9.7 kmh 29.97 in1014.9 mb 0.00 in0.0 mm 0.00 in0.0 mm 0.00 in0.0 mm
02:46 AM 66.7°F19.3°C 52.5°F11.4°C 60% 1.3 mph SSE2.1 kmh SSE 6.0 mph9.7 kmh 29.97 in1014.9 mb 0.00 in0.0 mm 0.00 in0.0 mm 0.00 in0.0 mm
02:41 AM 66.9°F19.4°C 52.7°F11.5°C 60% 1.9 mph S3.1 kmh S 7.0 mph11.3 kmh 29.97 in1014.9 mb 0.00 in0.0 mm 0.00 in0.0 mm 0.00 in0.0 mm
02:36 AM 67.3°F19.6°C 52.6°F11.4°C 59% 2.8 mph SE4.5 kmh SE 7.0 mph11.3 kmh 29.97 in1014.9 mb 0.00 in0.0 mm 0.00 in0.0 mm 0.00 in0.0 mm
02:31 AM 67.8°F19.9°C 52.6°F11.4°C 58% 1.8 mph SSE2.9 kmh SSE 9.0 mph14.5 kmh 29.97 in1014.9 mb 0.00 in0.0 mm 0.00 in0.0 mm 0.00 in0.0 mm
02:26 AM 68.2°F20.1°C 52.5°F11.4°C 57% 3.2 mph S5.1 kmh S 9.0 mph14.5 kmh 29.98 in1015.2 mb 0.00 in0.0 mm 0.00 in0.0 mm 0.00 in0.0 mm
02:21 AM 68.3°F20.2°C 52.6°F11.4°C 57% 3.4 mph S5.5 kmh S 11.3 mph18.2 kmh 29.98 in1015.2 mb 0.00 in0.0 mm 0.00 in0.0 mm 0.00 in0.0 mm
02:16 AM 68.3°F20.2°C 52.1°F11.2°C 56% 4.0 mph S6.4 kmh S 11.3 mph18.2 kmh 29.98 in1015.2 mb 0.00 in0.0 mm 0.00 in0.0 mm 0.00 in0.0 mm
02:11 AM 68.1°F20.1°C 51.9°F11.1°C 56% 3.2 mph S5.1 kmh S 8.8 mph14.2 kmh 29.98 in1015.2 mb 0.00 in0.0 mm 0.00 in0.0 mm 0.00 in0.0 mm
02:06 AM 68.4°F20.2°C 52.2°F11.2°C 56% 1.4 mph S2.3 kmh S 8.0 mph12.9 kmh 29.98 in1015.2 mb 0.00 in0.0 mm 0.00 in0.0 mm 0.00 in0.0 mm
02:01 AM 68.4°F20.2°C 51.7°F10.9°C 55% 2.0 mph S3.2 kmh S 8.0 mph12.9 kmh 29.98 in1015.2 mb 0.00 in0.0 mm 0.00 in0.0 mm 0.00 in0.0 mm
01:56 AM 68.5°F20.3°C 51.8°F11.0°C 55% 3.5 mph S5.6 kmh S 10.0 mph16.1 kmh 29.98 in1015.2 mb 0.00 in0.0 mm 0.00 in0.0 mm 0.00 in0.0 mm
01:51 AM 68.2°F20.1°C 52.0°F11.1°C 56% 3.9 mph S6.3 kmh S 10.0 mph16.1 kmh 29.99 in1015.6 mb 0.00 in0.0 mm 0.00 in0.0 mm 0.00 in0.0 mm
01:46 AM 68.0°F20.0°C 52.3°F11.3°C 57% 2.7 mph SE4.3 kmh SE 6.3 mph10.1 kmh 29.99 in1015.6 mb 0.00 in0.0 mm 0.00 in0.0 mm 0.00 in0.0 mm
01:41 AM 68.1°F20.1°C 51.4°F10.8°C 55% 2.6 mph SSW4.2 kmh SSW 7.5 mph12.1 kmh 29.98 in1015.2 mb 0.00 in0.0 mm 0.00 in0.0 mm 0.00 in0.0 mm
01:36 AM 68.0°F20.0°C 51.3°F10.7°C 55% 1.3 mph SSW2.1 kmh SSW 7.5 mph12.1 kmh 29.97 in1014.9 mb 0.00 in0.0 mm 0.00 in0.0 mm 0.00 in0.0 mm
01:31 AM 67.7°F19.8°C 51.6°F10.9°C 56% 1.8 mph S2.9 kmh S 6.3 mph10.1 kmh 29.98 in1015.2 mb 0.00 in0.0 mm 0.00 in0.0 mm 0.00 in0.0 mm
01:26 AM 67.6°F19.8°C 51.5°F10.8°C 56% 1.8 mph S2.9 kmh S 5.0 mph8.0 kmh 29.98 in1015.2 mb 0.00 in0.0 mm 0.00 in0.0 mm 0.00 in0.0 mm
01:21 AM 67.6°F19.8°C 51.5°F10.8°C 56% Calm Calm 5.0 mph8.0 kmh 29.99 in1015.6 mb 0.00 in0.0 mm 0.00 in0.0 mm 0.00 in0.0 mm
01:16 AM 67.3°F19.6°C 51.7°F10.9°C 57% 2.1 mph E3.4 kmh E 7.5 mph12.1 kmh 29.99 in1015.6 mb 0.00 in0.0 mm 0.00 in0.0 mm 0.00 in0.0 mm
01:11 AM 67.1°F19.5°C 51.5°F10.8°C 57% 1.9 mph SE3.1 kmh SE 7.5 mph12.1 kmh 29.99 in1015.6 mb 0.00 in0.0 mm 0.00 in0.0 mm 0.00 in0.0 mm
01:06 AM 66.8°F19.3°C 51.7°F10.9°C 58% 1.3 mph SE2.1 kmh SE 5.0 mph8.0 kmh 30.00 in1015.9 mb 0.00 in0.0 mm 0.00 in0.0 mm 0.00 in0.0 mm
01:01 AM 66.5°F19.2°C 50.9°F10.5°C 57% 1.9 mph SSW3.1 kmh SSW 5.0 mph8.0 kmh 30.00 in1015.9 mb 0.00 in0.0 mm 0.00 in0.0 mm 0.00 in0.0 mm
12:56 AM 66.6°F19.2°C 52.9°F11.6°C 61% 1.7 mph SE2.7 kmh SE 7.5 mph12.1 kmh 30.00 in1015.9 mb 0.00 in0.0 mm 0.00 in0.0 mm 0.00 in0.0 mm
12:51 AM 66.5°F19.2°C 51.9°F11.1°C 59% 1.3 mph SSE2.1 kmh SSE 7.5 mph12.1 kmh 30.00 in1015.9 mb 0.00 in0.0 mm 0.00 in0.0 mm 0.00 in0.0 mm
12:46 AM 66.1°F18.9°C 51.5°F10.8°C 59% 1.6 mph SSE2.6 kmh SSE 2.5 mph4.0 kmh 30.00 in1015.9 mb 0.00 in0.0 mm 0.00 in0.0 mm 0.00 in0.0 mm
12:41 AM 66.3°F19.1°C 52.2°F11.2°C 60% 1.3 mph E2.1 kmh E 1.3 mph2.1 kmh 30.00 in1015.9 mb 0.00 in0.0 mm 0.00 in0.0 mm 0.00 in0.0 mm
12:35 AM 66.7°F19.3°C 52.5°F11.4°C 60% 1.3 mph E2.1 kmh E 3.0 mph4.8 kmh 30.00 in1015.9 mb 0.00 in0.0 mm 0.00 in0.0 mm 0.00 in0.0 mm
12:31 AM 67.4°F19.7°C 53.2°F11.8°C 60% Calm Calm 3.0 mph4.8 kmh 30.00 in1015.9 mb 0.00 in0.0 mm 0.00 in0.0 mm 0.00 in0.0 mm
12:25 AM 67.9°F19.9°C 52.7°F11.5°C 58% Calm Calm 3.0 mph4.8 kmh 30.00 in1015.9 mb 0.00 in0.0 mm 0.00 in0.0 mm 0.00 in0.0 mm
12:21 AM 68.1°F20.1°C 52.4°F11.3°C 57% 1.3 mph SE2.1 kmh SE 6.0 mph9.7 kmh 30.00 in1015.9 mb 0.00 in0.0 mm 0.00 in0.0 mm 0.00 in0.0 mm
12:15 AM 68.3°F20.2°C 52.1°F11.2°C 56% Calm Calm 6.0 mph9.7 kmh 30.00 in1015.9 mb 0.00 in0.0 mm 0.00 in0.0 mm 0.00 in0.0 mm
12:10 AM 68.2°F20.1°C 51.0°F10.6°C 54% 2.1 mph S3.4 kmh S 6.3 mph10.1 kmh 30.00 in1015.9 mb 0.00 in0.0 mm 0.00 in0.0 mm 0.00 in0.0 mm
12:05 AM 67.9°F19.9°C 51.3°F10.7°C 55% 1.4 mph S2.3 kmh S 6.3 mph10.1 kmh 30.00 in1015.9 mb 0.00 in0.0 mm 0.00 in0.0 mm 0.00 in0.0 mm
12:00 AM 67.7°F19.8°C 52.5°F11.4°C 58% Calm Calm 1.3 mph2.1 kmh 30.00 in1015.9 mb 0.00 in0.0 mm 0.00 in0.0 mm 0.00 in0.0 mm